createdAt,value
2022-12-27T00:04:12.013Z,101613.09
2022-12-27T00:09:11.163Z,101609.66
2022-12-27T00:14:10.021Z,101605.44
2022-12-27T00:19:10.324Z,101595.00
2022-12-27T00:24:09.146Z,101587.16
2022-12-27T00:29:07.990Z,101592.38
2022-12-27T00:34:07.988Z,101606.31
2022-12-27T00:39:08.172Z,101603.81
2022-12-27T00:44:07.093Z,101593.41
2022-12-27T00:49:06.006Z,101601.28
2022-12-27T00:54:04.894Z,101597.03
2022-12-27T00:59:06.909Z,101596.22
2022-12-27T01:04:06.343Z,101590.44
2022-12-27T01:09:05.705Z,101588.97
2022-12-27T01:14:07.042Z,101580.41
2022-12-27T01:19:05.728Z,101579.59
2022-12-27T01:24:06.572Z,101554.50
2022-12-27T01:29:05.354Z,101539.00
2022-12-27T01:34:05.581Z,101528.50
2022-12-27T01:39:05.018Z,101532.88
2022-12-27T01:44:23.816Z,101544.09
2022-12-27T01:49:24.253Z,101551.06
2022-12-27T01:54:23.035Z,101547.53
2022-12-27T01:59:21.911Z,101543.22
2022-12-27T02:04:25.439Z,101537.19
2022-12-27T02:09:30.278Z,101542.59
2022-12-27T02:14:32.469Z,101533.09
2022-12-27T02:19:49.844Z,101535.81
2022-12-27T02:25:11.605Z,101549.13
2022-12-27T02:30:13.474Z,101553.00
2022-12-27T02:35:16.034Z,101550.41
2022-12-27T02:40:35.173Z,101542.66
2022-12-27T02:46:00.283Z,101531.41
2022-12-27T02:51:24.564Z,101519.19
2022-12-27T02:56:54.220Z,101526.06
2022-12-27T03:02:24.379Z,101532.91
2022-12-27T03:07:33.098Z,101526.78
2022-12-27T03:13:02.913Z,101516.31
2022-12-27T03:18:11.268Z,101526.66
2022-12-27T03:23:28.674Z,101522.44
2022-12-27T03:28:47.990Z,101509.41
2022-12-27T03:33:50.067Z,101510.34
2022-12-27T03:38:56.505Z,101503.41
2022-12-27T03:43:55.333Z,101501.72
2022-12-27T03:49:05.698Z,101509.44
2022-12-27T03:54:10.290Z,101515.66
2022-12-27T03:59:10.120Z,101510.44
2022-12-27T04:04:10.196Z,101506.91
2022-12-27T04:09:28.543Z,101501.66
2022-12-27T04:14:46.424Z,101500.88
2022-12-27T04:20:03.919Z,101480.06
2022-12-27T04:25:22.078Z,101486.13
2022-12-27T04:30:39.831Z,101504.09
2022-12-27T04:35:40.006Z,101516.94
2022-12-27T04:40:56.469Z,101525.47
2022-12-27T04:46:13.353Z,101529.81
2022-12-27T04:51:27.464Z,101534.09
2022-12-27T04:56:26.283Z,101519.47
2022-12-27T05:01:42.659Z,101506.53
2022-12-27T05:06:42.824Z,101509.97
2022-12-27T05:11:59.879Z,101486.81
2022-12-27T05:16:58.762Z,101494.66
2022-12-27T05:22:20.881Z,101472.06
2022-12-27T05:27:20.199Z,101477.34
2022-12-27T05:32:18.959Z,101487.59
2022-12-27T05:37:19.095Z,101479.66
2022-12-27T05:42:17.955Z,101482.19
2022-12-27T05:47:16.737Z,101482.09
2022-12-27T05:52:15.459Z,101460.47
2022-12-27T05:57:15.613Z,101436.97
2022-12-27T06:02:14.569Z,101492.50
2022-12-27T06:07:13.825Z,101511.34
2022-12-27T06:12:12.618Z,101499.03
2022-12-27T06:17:12.750Z,101514.75
2022-12-27T06:22:11.511Z,101513.25
2022-12-27T06:27:10.369Z,101489.28
2022-12-27T06:32:09.301Z,101478.78
2022-12-27T06:37:09.822Z,101473.38
2022-12-27T06:42:08.997Z,101488.94
2022-12-27T06:47:07.896Z,101489.72
2022-12-27T06:52:07.208Z,101478.31
2022-12-27T06:57:07.455Z,101489.47
2022-12-27T07:02:06.420Z,101474.38
2022-12-27T07:07:06.367Z,101464.09
2022-12-27T07:12:09.768Z,101463.00
2022-12-27T07:17:19.039Z,101465.91
2022-12-27T07:22:35.451Z,101462.50
2022-12-27T07:27:42.690Z,101450.47
2022-12-27T07:33:08.102Z,101460.94
2022-12-27T07:38:25.237Z,101466.00
2022-12-27T07:44:02.419Z,101467.81
2022-12-27T07:49:12.321Z,101463.53
2022-12-27T07:54:14.906Z,101464.78
2022-12-27T07:59:15.835Z,101464.00
2022-12-27T08:04:14.753Z,101450.78
2022-12-27T08:09:16.889Z,101460.50
2022-12-27T08:14:17.175Z,101452.31
2022-12-27T08:19:15.974Z,101448.81
2022-12-27T08:24:14.879Z,101440.47
2022-12-27T08:29:13.815Z,101432.16
2022-12-27T08:34:14.124Z,101428.34
2022-12-27T08:39:13.336Z,101438.13
2022-12-27T08:44:13.193Z,101441.28
2022-12-27T08:49:13.564Z,101445.41
2022-12-27T08:54:12.663Z,101434.47
2022-12-27T08:59:11.472Z,101432.28
2022-12-27T09:04:10.224Z,101419.09
2022-12-27T09:09:10.468Z,101411.16
2022-12-27T09:14:09.272Z,101405.53
2022-12-27T09:19:08.083Z,101404.94
2022-12-27T09:24:07.681Z,101397.19
2022-12-27T09:29:08.064Z,101382.25
2022-12-27T09:34:06.846Z,101366.75
2022-12-27T09:39:06.077Z,101374.91
2022-12-27T09:44:08.740Z,101374.69
2022-12-27T09:49:11.969Z,101377.41
2022-12-27T09:54:15.897Z,101394.84
2022-12-27T09:59:21.591Z,101383.69
2022-12-27T10:04:22.353Z,101382.00
2022-12-27T10:09:34.796Z,101375.69
2022-12-27T10:14:52.287Z,101354.50
2022-12-27T10:19:59.093Z,101355.25
2022-12-27T10:25:02.000Z,101349.41
2022-12-27T10:30:04.884Z,101328.59
2022-12-27T10:35:05.427Z,101328.69
2022-12-27T10:40:11.609Z,101324.75
2022-12-27T10:45:37.115Z,101328.56
2022-12-27T10:50:36.228Z,101291.72
2022-12-27T10:55:37.603Z,101294.78
2022-12-27T11:00:40.438Z,101287.63
2022-12-27T11:05:40.880Z,101298.28
2022-12-27T11:10:39.645Z,101276.69
2022-12-27T11:15:43.298Z,101291.44
2022-12-27T11:20:47.741Z,101290.78
2022-12-27T11:25:54.572Z,101305.34
2022-12-27T11:30:58.902Z,101292.47
2022-12-27T11:36:00.762Z,101294.97
2022-12-27T11:41:04.124Z,101294.31
2022-12-27T11:46:07.140Z,101286.56
2022-12-27T11:51:30.157Z,101279.66
2022-12-27T11:56:29.749Z,101295.06
2022-12-27T12:02:04.820Z,101289.88
2022-12-27T12:07:15.154Z,101281.47
2022-12-27T12:12:45.916Z,101284.63
2022-12-27T12:18:02.080Z,101297.16
2022-12-27T12:23:12.065Z,101303.19
2022-12-27T12:28:58.822Z,101311.53
2022-12-27T12:34:11.235Z,101302.25
2022-12-27T12:39:23.367Z,101300.25
2022-12-27T12:45:07.279Z,101336.81
2022-12-27T12:50:22.088Z,101319.38
2022-12-27T12:55:38.121Z,101323.94
2022-12-27T13:00:53.173Z,101322.69
2022-12-27T13:06:00.106Z,101327.84
2022-12-27T13:11:16.211Z,101336.78
2022-12-27T13:16:25.538Z,101351.47
2022-12-27T13:21:39.211Z,101367.63
2022-12-27T13:26:48.943Z,101358.34
2022-12-27T13:32:00.430Z,101366.59
2022-12-27T13:37:12.659Z,101391.31
2022-12-27T13:42:44.596Z,101388.13
2022-12-27T13:48:06.128Z,101401.44
2022-12-27T13:53:22.960Z,101394.47
2022-12-27T13:58:54.789Z,101407.22
2022-12-27T14:04:13.983Z,101410.72
2022-12-27T14:09:56.786Z,101408.22
2022-12-27T14:14:58.734Z,101407.06
2022-12-27T14:20:18.133Z,101414.84
2022-12-27T14:25:58.981Z,101414.09
2022-12-27T14:31:35.196Z,101429.94
2022-12-27T14:37:00.481Z,101427.28
2022-12-27T14:42:42.895Z,101438.31
2022-12-27T14:48:04.145Z,101433.72
2022-12-27T14:53:44.300Z,101442.31
2022-12-27T14:58:53.903Z,101452.88
2022-12-27T15:04:05.803Z,101459.16
2022-12-27T15:09:14.561Z,101470.38
2022-12-27T15:14:33.595Z,101477.03
2022-12-27T15:19:50.460Z,101487.75
2022-12-27T15:24:57.654Z,101495.44
2022-12-27T15:30:18.723Z,101509.41
2022-12-27T15:35:35.460Z,101513.19
2022-12-27T15:41:07.535Z,101529.31
2022-12-27T15:46:19.277Z,101522.41
2022-12-27T15:51:30.363Z,101530.38
2022-12-27T15:56:42.188Z,101534.88
2022-12-27T16:01:41.309Z,101531.19
2022-12-27T16:06:51.883Z,101536.22
2022-12-27T16:12:09.520Z,101545.38
2022-12-27T16:17:40.792Z,101543.50
2022-12-27T16:22:44.722Z,101550.00
2022-12-27T16:27:44.612Z,101553.25
2022-12-27T16:32:50.213Z,101568.38
2022-12-27T16:37:57.260Z,101571.25
2022-12-27T16:43:38.103Z,101564.31
2022-12-27T16:48:53.670Z,101568.88
2022-12-27T16:54:05.786Z,101575.13
2022-12-27T16:59:04.971Z,101585.81
2022-12-27T17:04:04.788Z,101599.53
2022-12-27T17:09:40.929Z,101601.50
2022-12-27T17:14:46.691Z,101602.22
2022-12-27T17:19:53.061Z,101613.59
2022-12-27T17:24:58.059Z,101621.38
2022-12-27T17:30:07.606Z,101629.31
2022-12-27T17:35:16.605Z,101628.16
2022-12-27T17:40:30.228Z,101637.16
2022-12-27T17:45:44.668Z,101635.25
2022-12-27T17:50:45.610Z,101640.25
2022-12-27T17:56:05.306Z,101641.78
2022-12-27T18:01:05.693Z,101660.56
2022-12-27T18:06:05.116Z,101654.38
2022-12-27T18:11:06.939Z,101665.81
2022-12-27T18:16:16.751Z,101677.50
2022-12-27T18:21:23.948Z,101671.06
2022-12-27T18:26:32.967Z,101675.72
2022-12-27T18:31:38.197Z,101684.47
2022-12-27T18:36:43.205Z,101696.69
2022-12-27T18:41:47.940Z,101694.28
2022-12-27T18:46:51.357Z,101700.13
2022-12-27T18:51:50.029Z,101698.44
2022-12-27T18:56:55.376Z,101708.09
2022-12-27T19:01:57.515Z,101711.06
2022-12-27T19:07:09.084Z,101721.50
2022-12-27T19:12:20.514Z,101722.38
2022-12-27T19:17:24.819Z,101724.19
2022-12-27T19:22:42.411Z,101732.03
2022-12-27T19:27:41.230Z,101743.09
2022-12-27T19:32:41.999Z,101745.75
2022-12-27T19:37:40.755Z,101730.56
2022-12-27T19:42:41.035Z,101747.00
2022-12-27T19:47:41.243Z,101748.19
2022-12-27T19:52:41.296Z,101747.50
2022-12-27T19:57:40.729Z,101739.78
2022-12-27T20:02:41.885Z,101750.53
2022-12-27T20:07:41.426Z,101763.97
2022-12-27T20:12:40.174Z,101748.72
2022-12-27T20:17:44.611Z,101767.41
2022-12-27T20:22:45.217Z,101760.81
2022-12-27T20:27:44.727Z,101780.00
2022-12-27T20:32:44.643Z,101785.00
2022-12-27T20:37:46.622Z,101785.97
2022-12-27T20:42:52.962Z,101793.72
2022-12-27T20:47:53.506Z,101809.06
2022-12-27T20:52:54.204Z,101807.75
2022-12-27T20:57:53.385Z,101816.47
2022-12-27T21:02:52.357Z,101833.53
2022-12-27T21:07:51.509Z,101849.44
2022-12-27T21:12:51.752Z,101862.06
2022-12-27T21:17:50.532Z,101872.56
2022-12-27T21:22:49.434Z,101895.03
2022-12-27T21:27:48.907Z,101904.78
2022-12-27T21:32:49.073Z,101917.94
2022-12-27T21:37:47.800Z,101905.91
2022-12-27T21:42:47.788Z,101926.25
2022-12-27T21:47:46.531Z,101911.28
2022-12-27T21:52:46.771Z,101923.06
2022-12-27T21:57:57.026Z,101922.97
2022-12-27T22:02:56.291Z,101932.13
2022-12-27T22:07:59.860Z,101934.59
2022-12-27T22:12:58.621Z,101944.78
2022-12-27T22:17:57.456Z,101957.91
2022-12-27T22:22:57.737Z,101938.97
2022-12-27T22:27:56.578Z,101943.72
2022-12-27T22:32:55.868Z,101966.31
2022-12-27T22:37:54.655Z,101941.44
2022-12-27T22:42:56.470Z,101940.34
2022-12-27T22:47:55.509Z,101968.63
2022-12-27T22:52:54.271Z,101962.81
2022-12-27T22:57:54.487Z,101959.41
2022-12-27T23:02:53.277Z,101967.03
2022-12-27T23:08:05.388Z,101960.13
2022-12-27T23:13:07.223Z,101954.59
2022-12-27T23:18:06.507Z,101951.16
2022-12-27T23:23:05.811Z,101950.47
2022-12-27T23:28:06.418Z,101961.28
2022-12-27T23:33:05.529Z,101975.09
2022-12-27T23:38:05.016Z,101966.56
2022-12-27T23:43:33.245Z,101955.16
2022-12-27T23:48:24.209Z,101962.00
2022-12-27T23:53:22.932Z,101962.66
2022-12-27T23:58:21.728Z,101974.09
